Time;durP1;ratioP1;P1;durP2;ratioP2;P2;SDS_P1;SDS_P2;PMS_P1;PMS_P2;Temp;Humidity;BMP_temperature;BMP_pressure;BME280_temperature;BME280_humidity;BME280_pressure;Samples;Min_cycle;Max_cycle;Signal;HPM_P1;HPM_P2
2022/10/11 00:01:38;;;;;;;11.13;3.88;;;;;;;;;;3384468;42;20539;-60
2022/10/11 00:04:09;;;;;;;11.20;4.10;;;;;;;;;;3391325;42;20105;-59
2022/10/11 00:06:42;;;;;;;11.63;4.13;;;;;;;;;;3381406;42;20093;-60
2022/10/11 00:09:14;;;;;;;9.88;4.43;;;;;;;;;;3383000;42;20091;-59
2022/10/11 00:11:46;;;;;;;11.07;4.55;;;;;;;;;;3384140;42;20101;-61
2022/10/11 00:14:17;;;;;;;10.30;4.05;;;;;;;;;;3385211;42;20146;-62
2022/10/11 00:16:48;;;;;;;10.37;3.57;;;;;;;;;;3391414;42;20105;-58
2022/10/11 00:19:19;;;;;;;9.07;3.17;;;;;;;;;;3384110;42;20090;-57
2022/10/11 00:21:50;;;;;;;10.02;3.78;;;;;;;;;;3388399;42;20882;-60
2022/10/11 00:24:21;;;;;;;8.82;3.47;;;;;;;;;;3383950;42;20099;-59
2022/10/11 00:26:52;;;;;;;8.40;3.80;;;;;;;;;;3383877;42;20087;-61
2022/10/11 00:29:24;;;;;;;9.03;3.57;;;;;;;;;;3383961;42;20103;-57
2022/10/11 00:31:55;;;;;;;12.60;3.30;;;;;;;;;;3376594;42;20161;-59
2022/10/11 00:34:26;;;;;;;8.90;3.28;;;;;;;;;;3383884;42;20113;-60
2022/10/11 00:36:57;;;;;;;7.57;3.38;;;;;;;;;;3385957;42;20185;-59
2022/10/11 00:39:28;;;;;;;9.27;3.33;;;;;;;;;;3383804;42;20105;-58
2022/10/11 00:41:59;;;;;;;10.70;3.40;;;;;;;;;;3379207;42;20095;-57
2022/10/11 00:44:31;;;;;;;8.05;3.17;;;;;;;;;;3381767;42;20091;-58
2022/10/11 00:47:05;;;;;;;8.68;3.20;;;;;;;;;;3384277;42;20550;-62
2022/10/11 00:49:56;;;;;;;7.10;3.38;;;;;;;;;;3376413;42;20149;-58
2022/10/11 00:52:30;;;;;;;6.85;2.83;;;;;;;;;;3377560;42;20098;-62
2022/10/11 00:55:10;;;;;;;7.90;2.90;;;;;;;;;;3383473;42;20557;-58
2022/10/11 00:57:44;;;;;;;7.55;2.78;;;;;;;;;;3380337;42;20122;-59
2022/10/11 01:00:16;;;;;;;8.20;2.60;;;;;;;;;;3381477;42;20095;-58
2022/10/11 01:02:47;;;;;;;8.02;3.28;;;;;;;;;;3373561;42;20095;-59
2022/10/11 01:05:18;;;;;;;8.73;2.67;;;;;;;;;;3388331;42;20091;-60
2022/10/11 01:07:49;;;;;;;8.30;2.63;;;;;;;;;;3383229;42;20770;-61
2022/10/11 01:10:21;;;;;;;6.57;2.78;;;;;;;;;;3376348;42;20162;-60
2022/10/11 01:13:15;;;;;;;8.32;3.15;;;;;;;;;;3383418;42;20098;-59
2022/10/11 01:15:59;;;;;;;7.35;2.60;;;;;;;;;;3377037;42;20562;-60
2022/10/11 01:18:35;;;;;;;9.30;2.80;;;;;;;;;;3380449;42;20718;-59
2022/10/11 01:21:12;;;;;;;7.40;2.77;;;;;;;;;;3376184;42;20638;-60
2022/10/11 01:24:06;;;;;;;8.98;2.53;;;;;;;;;;3384184;42;20201;-59
2022/10/11 01:27:24;;;;;;;7.40;2.60;;;;;;;;;;3380180;42;20084;-59
2022/10/11 01:30:29;;;;;;;7.18;2.60;;;;;;;;;;3376401;42;20571;-57
2022/10/11 01:33:25;;;;;;;9.75;2.67;;;;;;;;;;3382241;42;20078;-59
2022/10/11 01:36:37;;;;;;;6.50;2.33;;;;;;;;;;3380635;42;20098;-59
2022/10/11 01:39:10;;;;;;;7.28;2.40;;;;;;;;;;3355402;42;20221;-59
2022/10/11 01:41:47;;;;;;;8.65;2.60;;;;;;;;;;3349241;42;20107;-61
2022/10/11 01:44:18;;;;;;;7.35;2.65;;;;;;;;;;3367564;42;20760;-59
2022/10/11 01:46:50;;;;;;;7.60;2.85;;;;;;;;;;3388403;42;20572;-60
2022/10/11 01:49:21;;;;;;;6.63;2.70;;;;;;;;;;3383689;42;20099;-61
2022/10/11 01:51:54;;;;;;;9.60;2.85;;;;;;;;;;3386321;42;20123;-58
2022/10/11 01:54:46;;;;;;;7.70;2.88;;;;;;;;;;3383335;42;20122;-61
2022/10/11 01:57:17;;;;;;;9.63;2.67;;;;;;;;;;3375925;42;20098;-58
2022/10/11 02:00:01;;;;;;;9.20;3.03;;;;;;;;;;3383248;42;20086;-62
2022/10/11 02:03:08;;;;;;;6.57;2.60;;;;;;;;;;3380035;42;20164;-58
2022/10/11 02:05:48;;;;;;;10.63;3.30;;;;;;;;;;3383819;42;20647;-58
2022/10/11 02:08:37;;;;;;;7.13;2.90;;;;;;;;;;3384231;42;20106;-60
2022/10/11 02:11:27;;;;;;;7.90;3.10;;;;;;;;;;3367570;42;20106;-57
2022/10/11 02:14:27;;;;;;;8.35;2.88;;;;;;;;;;3367807;42;20172;-61
2022/10/11 02:17:02;;;;;;;8.23;3.30;;;;;;;;;;3382290;42;20095;-58
2022/10/11 02:19:37;;;;;;;8.13;3.53;;;;;;;;;;3383973;42;20086;-62
2022/10/11 02:22:12;;;;;;;9.23;3.40;;;;;;;;;;3375665;42;20167;-60
2022/10/11 02:24:45;;;;;;;7.88;2.90;;;;;;;;;;3385630;42;20496;-60
2022/10/11 02:27:17;;;;;;;7.63;3.42;;;;;;;;;;3375874;42;20103;-57
2022/10/11 02:29:48;;;;;;;8.00;2.83;;;;;;;;;;3382479;42;20557;-58
2022/10/11 02:32:20;;;;;;;7.70;3.22;;;;;;;;;;3375538;42;20474;-59
2022/10/11 02:34:55;;;;;;;7.38;3.10;;;;;;;;;;3382916;42;20109;-62
2022/10/11 02:37:41;;;;;;;8.90;2.85;;;;;;;;;;3382006;42;20105;-61
2022/10/11 02:40:24;;;;;;;7.07;2.75;;;;;;;;;;3380309;42;20087;-59
2022/10/11 02:43:01;;;;;;;9.90;3.40;;;;;;;;;;3382334;42;20554;-58
2022/10/11 02:45:40;;;;;;;6.95;3.30;;;;;;;;;;3368152;42;20102;-58
2022/10/11 02:48:11;;;;;;;10.45;2.90;;;;;;;;;;3382968;42;20090;-61
2022/10/11 02:50:42;;;;;;;7.03;2.97;;;;;;;;;;3373612;42;20105;-62
2022/10/11 02:53:13;;;;;;;8.35;3.00;;;;;;;;;;3379769;42;20527;-62
2022/10/11 02:55:45;;;;;;;8.33;2.90;;;;;;;;;;3376977;42;20105;-61
2022/10/11 02:58:16;;;;;;;9.07;3.08;;;;;;;;;;3363680;42;20164;-62
2022/10/11 03:00:47;;;;;;;7.32;3.00;;;;;;;;;;3380323;42;20102;-62
2022/10/11 03:03:18;;;;;;;7.07;2.85;;;;;;;;;;3378298;42;20098;-64
2022/10/11 03:05:49;;;;;;;7.55;2.90;;;;;;;;;;3386722;42;20097;-62
2022/10/11 03:08:21;;;;;;;12.53;3.50;;;;;;;;;;3383753;42;20095;-61
2022/10/11 03:10:52;;;;;;;8.48;3.40;;;;;;;;;;3386046;42;20105;-61
2022/10/11 03:13:23;;;;;;;8.52;3.30;;;;;;;;;;3382232;42;20615;-65
2022/10/11 03:15:54;;;;;;;10.90;3.78;;;;;;;;;;3384375;42;20098;-63
2022/10/11 03:18:25;;;;;;;10.13;3.05;;;;;;;;;;3385532;42;20113;-60
2022/10/11 03:20:56;;;;;;;9.80;3.20;;;;;;;;;;3383930;42;20094;-64
2022/10/11 03:23:28;;;;;;;7.82;3.80;;;;;;;;;;3383767;42;20535;-60
2022/10/11 03:25:59;;;;;;;9.35;3.60;;;;;;;;;;3383589;42;20138;-61
2022/10/11 03:28:30;;;;;;;8.60;3.15;;;;;;;;;;3386417;42;20260;-63
2022/10/11 03:31:01;;;;;;;10.32;3.33;;;;;;;;;;3378587;42;20101;-62
2022/10/11 03:33:32;;;;;;;11.77;3.40;;;;;;;;;;3385670;42;20176;-62
2022/10/11 03:36:04;;;;;;;8.05;2.90;;;;;;;;;;3388535;42;20599;-64
2022/10/11 03:38:35;;;;;;;9.05;3.50;;;;;;;;;;3382348;42;20099;-63
2022/10/11 03:41:06;;;;;;;6.78;2.75;;;;;;;;;;3384003;42;20165;-63
2022/10/11 03:43:38;;;;;;;9.73;3.53;;;;;;;;;;3369822;42;20105;-63
2022/10/11 03:46:09;;;;;;;7.93;3.30;;;;;;;;;;3387970;42;20137;-62
2022/10/11 03:48:40;;;;;;;9.20;3.20;;;;;;;;;;3388278;42;20093;-62
2022/10/11 03:51:12;;;;;;;11.27;3.45;;;;;;;;;;3375132;42;20102;-63
2022/10/11 03:53:43;;;;;;;11.25;3.20;;;;;;;;;;3388768;42;20102;-63
2022/10/11 03:56:14;;;;;;;8.25;3.00;;;;;;;;;;3380002;42;20091;-62
2022/10/11 03:58:45;;;;;;;7.20;3.30;;;;;;;;;;3383718;42;20162;-64
2022/10/11 04:01:16;;;;;;;12.27;3.65;;;;;;;;;;3386229;42;20110;-63
2022/10/11 04:03:47;;;;;;;11.00;3.17;;;;;;;;;;3387582;42;20228;-62
2022/10/11 04:06:19;;;;;;;11.48;3.20;;;;;;;;;;3383813;42;20650;-64
2022/10/11 04:08:50;;;;;;;9.60;3.08;;;;;;;;;;3388321;42;20095;-63
2022/10/11 04:11:21;;;;;;;10.00;3.20;;;;;;;;;;3380408;42;20087;-62
2022/10/11 04:13:52;;;;;;;11.48;3.05;;;;;;;;;;3383667;42;20659;-63
2022/10/11 04:16:23;;;;;;;7.60;3.17;;;;;;;;;;3383968;42;20086;-63
2022/10/11 04:18:54;;;;;;;10.00;3.72;;;;;;;;;;3388353;42;20083;-64
2022/10/11 04:21:25;;;;;;;8.38;3.40;;;;;;;;;;3382043;42;20083;-62
2022/10/11 04:23:56;;;;;;;9.67;3.40;;;;;;;;;;3390867;42;20087;-65
2022/10/11 04:26:28;;;;;;;9.00;3.47;;;;;;;;;;3368207;42;20098;-63
2022/10/11 04:28:59;;;;;;;8.07;3.20;;;;;;;;;;3388632;42;20097;-61
2022/10/11 04:31:30;;;;;;;12.27;3.97;;;;;;;;;;3383798;42;20097;-65
2022/10/11 04:34:01;;;;;;;10.55;4.07;;;;;;;;;;3388401;42;20079;-65
2022/10/11 04:36:32;;;;;;;11.80;3.40;;;;;;;;;;3383577;42;20587;-64
2022/10/11 04:39:05;;;;;;;12.35;3.10;;;;;;;;;;3390229;42;20554;-63
2022/10/11 04:41:36;;;;;;;10.05;3.05;;;;;;;;;;3382740;42;20627;-61
2022/10/11 04:44:07;;;;;;;10.02;3.85;;;;;;;;;;3382517;42;20091;-61
2022/10/11 04:46:38;;;;;;;9.93;3.35;;;;;;;;;;3383028;42;20573;-61
2022/10/11 04:49:09;;;;;;;10.33;3.03;;;;;;;;;;3378056;42;20083;-62
2022/10/11 04:51:41;;;;;;;10.68;3.92;;;;;;;;;;3383013;42;20091;-62
2022/10/11 04:54:12;;;;;;;13.05;3.58;;;;;;;;;;3386642;42;20126;-63
2022/10/11 04:56:43;;;;;;;11.05;3.53;;;;;;;;;;3387648;42;21052;-63
2022/10/11 04:59:14;;;;;;;11.02;3.47;;;;;;;;;;3387344;42;20098;-66
2022/10/11 05:01:45;;;;;;;13.77;3.37;;;;;;;;;;3387410;42;20079;-62
2022/10/11 05:04:16;;;;;;;8.32;3.30;;;;;;;;;;3380805;42;20087;-62
2022/10/11 05:06:47;;;;;;;9.65;3.58;;;;;;;;;;3378183;42;20150;-65
2022/10/11 05:09:20;;;;;;;9.30;3.05;;;;;;;;;;3382067;42;20134;-63
2022/10/11 05:11:51;;;;;;;10.60;3.50;;;;;;;;;;3380145;42;20146;-63
2022/10/11 05:14:22;;;;;;;7.43;3.07;;;;;;;;;;3382522;42;20527;-62
2022/10/11 05:16:54;;;;;;;10.63;3.20;;;;;;;;;;3380551;42;20164;-65
2022/10/11 05:19:25;;;;;;;11.45;3.45;;;;;;;;;;3382784;42;20106;-63
2022/10/11 05:21:56;;;;;;;12.40;3.90;;;;;;;;;;3386700;42;20099;-64
2022/10/11 05:24:27;;;;;;;10.68;3.42;;;;;;;;;;3389151;42;20565;-63
2022/10/11 05:26:58;;;;;;;9.17;3.70;;;;;;;;;;3381124;42;20096;-64
2022/10/11 05:29:29;;;;;;;8.57;3.30;;;;;;;;;;3382624;42;20099;-62
2022/10/11 05:32:00;;;;;;;9.55;4.15;;;;;;;;;;3382711;42;20102;-63
2022/10/11 05:34:32;;;;;;;11.90;3.40;;;;;;;;;;3378223;42;20097;-62
2022/10/11 05:37:03;;;;;;;8.80;3.45;;;;;;;;;;3378659;42;20109;-63
2022/10/11 05:39:34;;;;;;;13.40;4.40;;;;;;;;;;3381209;42;20161;-63
2022/10/11 05:42:05;;;;;;;8.32;3.40;;;;;;;;;;3378853;42;20561;-62
2022/10/11 05:44:36;;;;;;;9.98;3.33;;;;;;;;;;3381928;42;20161;-64
2022/10/11 05:47:07;;;;;;;8.38;3.00;;;;;;;;;;3378152;42;20139;-61
2022/10/11 05:49:39;;;;;;;9.38;3.10;;;;;;;;;;3379891;42;20091;-62
2022/10/11 05:52:12;;;;;;;7.37;3.03;;;;;;;;;;3381428;42;20091;-63
2022/10/11 05:54:43;;;;;;;8.25;3.60;;;;;;;;;;3379145;42;20084;-60
2022/10/11 05:57:14;;;;;;;12.30;3.22;;;;;;;;;;3382625;42;20099;-63
2022/10/11 05:59:45;;;;;;;8.43;3.10;;;;;;;;;;3375928;42;20130;-62
2022/10/11 06:02:16;;;;;;;8.77;2.88;;;;;;;;;;3387026;42;20131;-62
2022/10/11 06:04:47;;;;;;;7.70;2.97;;;;;;;;;;3380252;42;20554;-62
2022/10/11 06:07:19;;;;;;;7.63;3.30;;;;;;;;;;3386325;42;20561;-62
2022/10/11 06:09:50;;;;;;;7.95;3.30;;;;;;;;;;3390079;42;20835;-67
2022/10/11 06:12:21;;;;;;;8.43;3.08;;;;;;;;;;3382524;42;20082;-64
2022/10/11 06:14:52;;;;;;;8.75;3.15;;;;;;;;;;3377762;42;20095;-64
2022/10/11 06:17:24;;;;;;;6.53;2.70;;;;;;;;;;3380833;42;20087;-62
2022/10/11 06:19:55;;;;;;;7.90;3.15;;;;;;;;;;3387546;42;20100;-64
2022/10/11 06:22:26;;;;;;;7.75;2.88;;;;;;;;;;3382357;42;20094;-64
2022/10/11 06:24:57;;;;;;;7.60;2.60;;;;;;;;;;3387239;42;20133;-63
2022/10/11 06:27:28;;;;;;;7.95;3.10;;;;;;;;;;3382337;42;20118;-63
2022/10/11 06:30:00;;;;;;;6.73;3.10;;;;;;;;;;3380325;42;20098;-65
2022/10/11 06:32:31;;;;;;;8.68;2.92;;;;;;;;;;3382303;42;20117;-65
2022/10/11 06:35:04;;;;;;;7.72;2.40;;;;;;;;;;3382751;42;20090;-63
2022/10/11 06:37:35;;;;;;;6.28;2.40;;;;;;;;;;3386921;42;20097;-63
2022/10/11 06:40:07;;;;;;;7.43;2.60;;;;;;;;;;3383874;42;20087;-65
2022/10/11 06:42:38;;;;;;;6.87;2.20;;;;;;;;;;3388157;42;20093;-64
2022/10/11 06:45:09;;;;;;;7.15;2.70;;;;;;;;;;3383727;42;20098;-64
2022/10/11 06:47:40;;;;;;;7.50;2.50;;;;;;;;;;3381810;42;20548;-62
2022/10/11 06:50:12;;;;;;;8.73;2.60;;;;;;;;;;3389121;42;20094;-65
2022/10/11 06:52:45;;;;;;;8.18;2.55;;;;;;;;;;3387702;42;20606;-61
2022/10/11 06:55:16;;;;;;;7.07;2.47;;;;;;;;;;3388375;42;20138;-62
2022/10/11 06:57:47;;;;;;;6.88;2.60;;;;;;;;;;3383828;42;20102;-63
2022/10/11 07:00:18;;;;;;;7.95;2.47;;;;;;;;;;3388973;42;20146;-63
2022/10/11 07:02:49;;;;;;;7.95;2.88;;;;;;;;;;3391196;42;20094;-63
2022/10/11 07:05:20;;;;;;;8.88;2.55;;;;;;;;;;3387935;42;20154;-65
2022/10/11 07:07:52;;;;;;;8.27;2.53;;;;;;;;;;3384170;42;20150;-63
2022/10/11 07:10:23;;;;;;;6.22;2.25;;;;;;;;;;3383052;42;20101;-63
2022/10/11 07:12:54;;;;;;;7.38;2.50;;;;;;;;;;3387656;42;20095;-64
2022/10/11 07:15:25;;;;;;;6.25;2.45;;;;;;;;;;3384132;42;20087;-63
2022/10/11 07:17:56;;;;;;;9.20;2.53;;;;;;;;;;3388326;42;20105;-65
2022/10/11 07:20:27;;;;;;;5.50;2.60;;;;;;;;;;3388141;42;20098;-62
2022/10/11 07:22:58;;;;;;;8.02;2.70;;;;;;;;;;3384129;42;20099;-64
2022/10/11 07:25:30;;;;;;;8.45;2.38;;;;;;;;;;3387530;42;20098;-63
2022/10/11 07:28:01;;;;;;;10.05;2.53;;;;;;;;;;3386751;42;20113;-63
2022/10/11 07:30:32;;;;;;;7.03;2.50;;;;;;;;;;3374696;42;20711;-62
2022/10/11 07:33:03;;;;;;;9.53;2.63;;;;;;;;;;3383096;42;20154;-63
2022/10/11 07:35:35;;;;;;;6.35;2.50;;;;;;;;;;3382368;42;20102;-65
2022/10/11 07:38:07;;;;;;;11.23;2.92;;;;;;;;;;3382966;42;20098;-62
2022/10/11 07:40:44;;;;;;;10.55;3.05;;;;;;;;;;3376131;42;20145;-61
2022/10/11 07:43:16;;;;;;;9.82;2.75;;;;;;;;;;3383470;42;20170;-64
2022/10/11 07:45:47;;;;;;;13.03;2.83;;;;;;;;;;3382694;42;20259;-64
2022/10/11 07:48:19;;;;;;;8.13;2.50;;;;;;;;;;3377028;42;20082;-68
2022/10/11 07:50:50;;;;;;;9.48;2.50;;;;;;;;;;3367760;42;20511;-66
2022/10/11 07:53:21;;;;;;;8.65;2.72;;;;;;;;;;3384897;42;20094;-64
2022/10/11 07:55:52;;;;;;;7.45;2.35;;;;;;;;;;3383549;42;20098;-66
2022/10/11 07:58:24;;;;;;;8.97;2.70;;;;;;;;;;3383454;42;20083;-64
2022/10/11 08:00:55;;;;;;;6.65;2.38;;;;;;;;;;3389495;42;20094;-67
2022/10/11 08:03:26;;;;;;;10.48;2.80;;;;;;;;;;3383339;42;20702;-67
2022/10/11 08:06:02;;;;;;;7.75;2.75;;;;;;;;;;3383671;42;20565;-65
2022/10/11 08:08:33;;;;;;;7.78;2.70;;;;;;;;;;3376324;42;20501;-66
2022/10/11 08:11:04;;;;;;;9.60;3.10;;;;;;;;;;3383596;42;20087;-64
2022/10/11 08:13:36;;;;;;;10.18;2.50;;;;;;;;;;3385922;42;20094;-66
2022/10/11 08:16:11;;;;;;;12.52;3.00;;;;;;;;;;3387687;42;20112;-66
2022/10/11 08:18:42;;;;;;;10.82;2.72;;;;;;;;;;3378859;42;20158;-64
2022/10/11 08:21:14;;;;;;;8.40;2.65;;;;;;;;;;3390989;42;20134;-66
2022/10/11 08:23:45;;;;;;;8.27;2.47;;;;;;;;;;3374062;42;20087;-64
2022/10/11 08:26:16;;;;;;;6.68;2.22;;;;;;;;;;3383155;42;20132;-64
2022/10/11 08:28:48;;;;;;;7.35;2.40;;;;;;;;;;3387408;42;20575;-62
2022/10/11 08:31:19;;;;;;;10.45;2.58;;;;;;;;;;3386264;42;20096;-66
2022/10/11 08:33:50;;;;;;;11.00;2.75;;;;;;;;;;3383383;42;20141;-64
2022/10/11 08:36:21;;;;;;;9.93;3.30;;;;;;;;;;3383611;42;20534;-63
2022/10/11 08:38:52;;;;;;;10.30;3.17;;;;;;;;;;3382726;42;20192;-62
2022/10/11 08:41:39;;;;;;;9.55;2.67;;;;;;;;;;3387706;42;20653;-64
2022/10/11 08:44:25;;;;;;;8.18;2.50;;;;;;;;;;3375511;42;20719;-64
2022/10/11 08:47:00;;;;;;;8.55;2.70;;;;;;;;;;3383075;42;20109;-64
2022/10/11 08:49:31;;;;;;;6.47;2.43;;;;;;;;;;3382947;42;20134;-61
2022/10/11 08:52:24;;;;;;;6.28;2.35;;;;;;;;;;3381538;42;20590;-64
2022/10/11 08:55:00;;;;;;;7.50;2.67;;;;;;;;;;3371820;42;20142;-64
2022/10/11 08:57:33;;;;;;;8.20;2.67;;;;;;;;;;3382551;42;20090;-65
2022/10/11 09:00:07;;;;;;;10.52;2.78;;;;;;;;;;3375869;42;20178;-61
2022/10/11 09:02:57;;;;;;;9.67;2.57;;;;;;;;;;3383075;42;20161;-63
2022/10/11 09:05:55;;;;;;;9.02;2.72;;;;;;;;;;3378410;42;20158;-64
2022/10/11 09:08:32;;;;;;;8.73;2.83;;;;;;;;;;3382926;42;20154;-61
2022/10/11 09:11:32;;;;;;;10.90;2.60;;;;;;;;;;3377207;42;20091;-65
2022/10/11 09:14:25;;;;;;;7.28;2.20;;;;;;;;;;3381146;42;20609;-62
2022/10/11 09:17:07;;;;;;;9.67;3.23;;;;;;;;;;3380502;42;20253;-63
2022/10/11 09:19:47;;;;;;;7.30;2.40;;;;;;;;;;3375660;42;20566;-61
2022/10/11 09:22:37;;;;;;;8.90;2.50;;;;;;;;;;3383042;42;20095;-62
2022/10/11 09:25:20;;;;;;;9.52;2.53;;;;;;;;;;3375845;42;20604;-63
2022/10/11 09:28:03;;;;;;;8.60;2.42;;;;;;;;;;3391176;42;20600;-65
2022/10/11 09:30:35;;;;;;;8.50;2.50;;;;;;;;;;3382693;42;20645;-62
2022/10/11 09:33:27;;;;;;;10.30;2.55;;;;;;;;;;3383337;42;20574;-63
2022/10/11 09:35:58;;;;;;;8.52;2.65;;;;;;;;;;3380706;42;20099;-65
2022/10/11 09:39:10;;;;;;;7.85;2.53;;;;;;;;;;3373708;42;20164;-63
2022/10/11 09:41:48;;;;;;;6.75;2.58;;;;;;;;;;3371242;42;20199;-66
2022/10/11 09:44:22;;;;;;;7.77;2.80;;;;;;;;;;3369314;42;20558;-66
2022/10/11 09:46:54;;;;;;;9.88;3.13;;;;;;;;;;3382199;42;20557;-62
2022/10/11 09:49:32;;;;;;;12.02;3.58;;;;;;;;;;3380032;42;20094;-63
2022/10/11 09:52:04;;;;;;;8.38;2.83;;;;;;;;;;3379176;42;20166;-63
2022/10/11 09:54:39;;;;;;;7.95;2.47;;;;;;;;;;3380780;42;20095;-63
2022/10/11 09:57:17;;;;;;;9.30;3.13;;;;;;;;;;3386712;42;20560;-63
2022/10/11 10:00:20;;;;;;;8.88;2.20;;;;;;;;;;3383672;42;20106;-64
2022/10/11 10:02:59;;;;;;;7.38;2.47;;;;;;;;;;3380361;42;20114;-64
2022/10/11 10:05:35;;;;;;;10.27;3.08;;;;;;;;;;3378968;42;20117;-63
2022/10/11 10:08:10;;;;;;;8.07;2.17;;;;;;;;;;3382659;42;20078;-63
2022/10/11 10:10:41;;;;;;;13.53;2.43;;;;;;;;;;3381896;42;20086;-62
2022/10/11 10:13:35;;;;;;;8.13;2.40;;;;;;;;;;3383196;42;20083;-62
2022/10/11 10:16:10;;;;;;;10.30;2.45;;;;;;;;;;3376336;42;20105;-63
2022/10/11 10:18:42;;;;;;;16.25;2.72;;;;;;;;;;3366563;42;20130;-62
2022/10/11 10:21:14;;;;;;;11.10;2.65;;;;;;;;;;3371852;42;20154;-64
2022/10/11 10:23:45;;;;;;;10.30;3.00;;;;;;;;;;3382380;42;20205;-65
2022/10/11 10:26:18;;;;;;;8.98;2.75;;;;;;;;;;3368054;42;20109;-64
2022/10/11 10:29:07;;;;;;;7.53;2.45;;;;;;;;;;3374799;42;20541;-64
2022/10/11 10:31:49;;;;;;;7.88;2.53;;;;;;;;;;3382257;42;20079;-64
2022/10/11 10:34:32;;;;;;;9.65;2.92;;;;;;;;;;3368080;42;20098;-62
2022/10/11 10:37:26;;;;;;;10.03;2.60;;;;;;;;;;3381229;42;20106;-65
2022/10/11 10:40:17;;;;;;;10.57;2.40;;;;;;;;;;3381986;42;20091;-63
2022/10/11 10:42:49;;;;;;;7.90;2.40;;;;;;;;;;3379214;42;20151;-62
2022/10/11 10:45:20;;;;;;;8.30;2.50;;;;;;;;;;3375115;42;20106;-63
2022/10/11 10:48:13;;;;;;;10.65;2.53;;;;;;;;;;3382532;42;20093;-65
2022/10/11 10:50:47;;;;;;;10.13;2.20;;;;;;;;;;3380623;42;20477;-64
2022/10/11 10:53:30;;;;;;;9.38;2.60;;;;;;;;;;3382517;42;20097;-62
2022/10/11 10:56:29;;;;;;;9.40;2.50;;;;;;;;;;3382646;42;20083;-63
2022/10/11 10:59:37;;;;;;;10.52;2.60;;;;;;;;;;3380368;42;20562;-62
2022/10/11 11:02:08;;;;;;;6.88;2.30;;;;;;;;;;3382090;42;20194;-62
2022/10/11 11:04:39;;;;;;;8.87;2.70;;;;;;;;;;3383292;42;20090;-61
2022/10/11 11:07:22;;;;;;;9.32;2.15;;;;;;;;;;3379564;42;20099;-62
2022/10/11 11:10:11;;;;;;;9.93;2.40;;;;;;;;;;3374940;42;20146;-64
2022/10/11 11:12:53;;;;;;;8.13;2.50;;;;;;;;;;3382580;42;20091;-62
2022/10/11 11:15:42;;;;;;;10.55;2.33;;;;;;;;;;3379884;42;20095;-65
2022/10/11 11:18:54;;;;;;;8.70;2.57;;;;;;;;;;3367054;42;20530;-61
2022/10/11 11:21:50;;;;;;;9.40;2.67;;;;;;;;;;3371989;42;20087;-62
2022/10/11 11:24:43;;;;;;;10.77;2.45;;;;;;;;;;3381858;42;20224;-64
2022/10/11 11:27:26;;;;;;;7.82;2.45;;;;;;;;;;3381811;42;20168;-62
2022/10/11 11:30:20;;;;;;;9.60;2.75;;;;;;;;;;3385151;42;20095;-63
2022/10/11 11:33:13;;;;;;;9.83;2.83;;;;;;;;;;3376739;42;20086;-61
2022/10/11 11:35:54;;;;;;;6.85;2.40;;;;;;;;;;3381923;42;20093;-62
2022/10/11 11:38:39;;;;;;;8.05;2.70;;;;;;;;;;3373367;42;20101;-62
2022/10/11 11:41:33;;;;;;;8.52;2.50;;;;;;;;;;3384028;42;20150;-63
2022/10/11 11:44:49;;;;;;;8.13;2.55;;;;;;;;;;3389677;42;20597;-63
2022/10/11 11:47:33;;;;;;;8.47;2.67;;;;;;;;;;3343698;42;20522;-61
2022/10/11 11:50:24;;;;;;;13.75;2.60;;;;;;;;;;3347245;42;20267;-63
2022/10/11 11:52:57;;;;;;;10.30;2.42;;;;;;;;;;3373737;42;20205;-62
2022/10/11 11:55:35;;;;;;;6.05;2.30;;;;;;;;;;3383540;42;20097;-65
2022/10/11 11:58:47;;;;;;;7.70;2.20;;;;;;;;;;3381633;42;20181;-63
2022/10/11 12:01:43;;;;;;;9.60;2.30;;;;;;;;;;3368987;42;20113;-63
2022/10/11 12:04:29;;;;;;;7.15;2.20;;;;;;;;;;3382646;42;20099;-62
2022/10/11 12:07:09;;;;;;;9.43;2.40;;;;;;;;;;3385433;42;20555;-63
2022/10/11 12:09:42;;;;;;;9.05;2.45;;;;;;;;;;3383582;42;20099;-63
2022/10/11 12:12:27;;;;;;;8.68;2.65;;;;;;;;;;3369307;42;20090;-64
2022/10/11 12:15:08;;;;;;;8.30;2.90;;;;;;;;;;3382551;42;20117;-64
2022/10/11 12:17:55;;;;;;;8.00;2.50;;;;;;;;;;3378343;42;20184;-64
2022/10/11 12:20:30;;;;;;;9.85;2.30;;;;;;;;;;3384305;42;20099;-67
2022/10/11 12:23:11;;;;;;;7.78;2.10;;;;;;;;;;3379558;42;20599;-64
2022/10/11 12:25:42;;;;;;;11.77;2.95;;;;;;;;;;3374544;42;20102;-62
2022/10/11 12:28:35;;;;;;;9.33;2.40;;;;;;;;;;3374116;42;20144;-63
2022/10/11 12:31:24;;;;;;;10.85;2.58;;;;;;;;;;3377864;42;20157;-63
2022/10/11 12:34:14;;;;;;;9.05;2.20;;;;;;;;;;3380725;42;20087;-63
2022/10/11 12:36:47;;;;;;;9.35;2.25;;;;;;;;;;3384789;42;20095;-65
2022/10/11 12:39:18;;;;;;;9.10;2.65;;;;;;;;;;3372127;42;20174;-66
2022/10/11 12:41:54;;;;;;;8.90;2.40;;;;;;;;;;3380997;42;20091;-67
2022/10/11 12:44:26;;;;;;;9.88;2.63;;;;;;;;;;3380935;42;20082;-65
2022/10/11 12:47:20;;;;;;;10.27;2.53;;;;;;;;;;3373705;42;20094;-64
2022/10/11 12:50:14;;;;;;;10.20;2.30;;;;;;;;;;3372378;42;20087;-64
2022/10/11 12:53:12;;;;;;;10.80;2.55;;;;;;;;;;3376156;42;20213;-63
2022/10/11 12:56:00;;;;;;;8.03;3.07;;;;;;;;;;3369034;42;20154;-65
2022/10/11 12:58:42;;;;;;;9.60;2.95;;;;;;;;;;3380667;42;20146;-63
2022/10/11 13:01:21;;;;;;;10.13;3.28;;;;;;;;;;3382189;42;20083;-65
2022/10/11 13:04:06;;;;;;;9.75;2.63;;;;;;;;;;3383161;42;20592;-64
2022/10/11 13:06:44;;;;;;;10.20;2.85;;;;;;;;;;3382168;42;20091;-64
2022/10/11 13:09:34;;;;;;;8.40;2.60;;;;;;;;;;3384184;42;20090;-62
2022/10/11 13:12:18;;;;;;;10.82;2.50;;;;;;;;;;3380914;42;20095;-65
2022/10/11 13:14:58;;;;;;;12.27;2.78;;;;;;;;;;3382590;42;20184;-64
2022/10/11 13:17:31;;;;;;;9.40;2.78;;;;;;;;;;3375872;42;20158;-64
2022/10/11 13:20:17;;;;;;;7.30;2.28;;;;;;;;;;3382360;42;20098;-65
2022/10/11 13:22:49;;;;;;;13.43;2.53;;;;;;;;;;3382525;42;20103;-63
2022/10/11 13:25:29;;;;;;;11.13;4.13;;;;;;;;;;3380361;42;20200;-66
2022/10/11 13:28:00;;;;;;;9.60;2.20;;;;;;;;;;3367112;42;20086;-64
2022/10/11 13:30:33;;;;;;;9.55;2.25;;;;;;;;;;3371129;42;20083;-64
2022/10/11 13:33:17;;;;;;;6.78;2.13;;;;;;;;;;3374910;42;20091;-65
2022/10/11 13:35:48;;;;;;;7.03;2.20;;;;;;;;;;3366861;42;20086;-65
2022/10/11 13:38:26;;;;;;;8.55;2.40;;;;;;;;;;3378574;42;20095;-63
2022/10/11 13:40:58;;;;;;;10.63;3.08;;;;;;;;;;3388953;42;20174;-66
2022/10/11 13:43:30;;;;;;;10.60;2.50;;;;;;;;;;3382633;42;20210;-64
2022/10/11 13:46:03;;;;;;;8.90;2.70;;;;;;;;;;3374816;42;20813;-64
2022/10/11 13:48:39;;;;;;;9.00;2.40;;;;;;;;;;3385479;42;20171;-64
2022/10/11 13:51:35;;;;;;;10.77;2.60;;;;;;;;;;3387390;42;20160;-64
2022/10/11 13:54:08;;;;;;;7.30;2.28;;;;;;;;;;3375935;42;20091;-62
2022/10/11 13:56:43;;;;;;;11.13;3.03;;;;;;;;;;3375122;42;20098;-61
2022/10/11 13:59:22;;;;;;;9.63;2.67;;;;;;;;;;3382380;42;20142;-63
2022/10/11 14:01:57;;;;;;;12.43;3.50;;;;;;;;;;3375555;42;20172;-64
2022/10/11 14:04:28;;;;;;;9.00;2.72;;;;;;;;;;3367521;42;20152;-64
2022/10/11 14:07:01;;;;;;;12.10;2.90;;;;;;;;;;3371428;42;20110;-63
2022/10/11 14:09:33;;;;;;;9.82;3.20;;;;;;;;;;3382075;42;20103;-64
2022/10/11 14:12:42;;;;;;;11.68;3.13;;;;;;;;;;3382032;42;20224;-64
2022/10/11 14:15:45;;;;;;;9.57;2.87;;;;;;;;;;3382598;42;20098;-62
2022/10/11 14:18:37;;;;;;;11.45;3.20;;;;;;;;;;3377773;42;20154;-63
2022/10/11 14:21:18;;;;;;;9.63;2.90;;;;;;;;;;3379653;42;20097;-65
2022/10/11 14:23:50;;;;;;;13.95;3.15;;;;;;;;;;3379081;42;20687;-64
2022/10/11 14:26:21;;;;;;;12.55;3.10;;;;;;;;;;3380402;42;20107;-65
2022/10/11 14:28:57;;;;;;;11.20;3.27;;;;;;;;;;3386260;42;20102;-64
2022/10/11 14:31:29;;;;;;;7.28;2.60;;;;;;;;;;3375089;42;20623;-63
2022/10/11 14:34:00;;;;;;;10.05;3.33;;;;;;;;;;3382420;42;20876;-63
2022/10/11 14:36:31;;;;;;;9.38;2.72;;;;;;;;;;3378974;42;20099;-64
2022/10/11 14:39:04;;;;;;;8.15;2.65;;;;;;;;;;3381759;42;20136;-66
2022/10/11 14:41:36;;;;;;;8.47;2.90;;;;;;;;;;3388941;42;20146;-64
2022/10/11 14:44:07;;;;;;;9.05;2.85;;;;;;;;;;3379706;42;20098;-65
2022/10/11 14:46:39;;;;;;;12.65;2.75;;;;;;;;;;3381953;42;20086;-64
2022/10/11 14:49:15;;;;;;;9.18;2.60;;;;;;;;;;3383409;42;20158;-65
2022/10/11 14:51:47;;;;;;;10.02;2.60;;;;;;;;;;3382060;42;20091;-65
2022/10/11 14:54:21;;;;;;;11.03;2.20;;;;;;;;;;3379722;42;20184;-64
2022/10/11 14:56:53;;;;;;;8.75;2.45;;;;;;;;;;3376454;42;20110;-64
2022/10/11 14:59:26;;;;;;;12.02;2.92;;;;;;;;;;3376111;42;20110;-64
2022/10/11 15:01:57;;;;;;;10.30;3.05;;;;;;;;;;3376953;42;20101;-65
2022/10/11 15:04:28;;;;;;;14.32;4.85;;;;;;;;;;3383705;42;20508;-64
2022/10/11 15:07:00;;;;;;;9.33;2.37;;;;;;;;;;3381200;42;20090;-64
2022/10/11 15:09:31;;;;;;;8.45;2.28;;;;;;;;;;3382569;42;20095;-62
2022/10/11 15:12:02;;;;;;;9.73;2.10;;;;;;;;;;3386176;42;20159;-63
2022/10/11 15:14:33;;;;;;;11.57;2.30;;;;;;;;;;3381640;42;20100;-63
2022/10/11 15:17:04;;;;;;;11.68;2.40;;;;;;;;;;3380323;42;20095;-64
2022/10/11 15:19:36;;;;;;;9.37;2.80;;;;;;;;;;3384006;42;20142;-65
2022/10/11 15:22:07;;;;;;;10.55;2.50;;;;;;;;;;3382264;42;20176;-66
2022/10/11 15:24:38;;;;;;;9.45;2.40;;;;;;;;;;3383231;42;20110;-63
2022/10/11 15:27:09;;;;;;;8.60;2.60;;;;;;;;;;3383696;42;20091;-64
2022/10/11 15:29:40;;;;;;;11.60;3.08;;;;;;;;;;3384162;42;20082;-65
2022/10/11 15:32:11;;;;;;;11.00;2.40;;;;;;;;;;3383834;42;20110;-65
2022/10/11 15:34:43;;;;;;;8.40;2.20;;;;;;;;;;3382100;42;20138;-65